Time;durP1;ratioP1;P1;durP2;ratioP2;P2;SDS_P1;SDS_P2;PMS_P1;PMS_P2;Temp;Humidity;BMP_temperature;BMP_pressure;BME280_temperature;BME280_humidity;BME280_pressure;Samples;Min_cycle;Max_cycle;Signal;HPM_P1;HPM_P2
2022/01/05 00:01:00;;;;;;;6.88;3.90;;;10.30;99.90;;;10.50;64.83;96819.88;4982361;28;20397;-80
2022/01/05 00:03:26;;;;;;;4.80;3.42;;;10.30;99.90;;;10.41;65.40;96832.66;4990140;28;20081;-81
2022/01/05 00:05:52;;;;;;;4.13;2.88;;;10.30;99.90;;;10.33;64.87;96830.72;4971535;28;20069;-80
2022/01/05 00:08:20;;;;;;;5.20;2.72;;;10.20;99.90;;;10.21;65.13;96847.63;4959023;28;20201;-80
2022/01/05 00:10:46;;;;;;;4.03;3.28;;;10.20;99.90;;;10.29;64.80;96846.03;4980872;28;20076;-80
2022/01/05 00:13:12;;;;;;;3.78;2.70;;;10.10;99.90;;;10.21;65.13;96853.03;5007001;28;20802;-80
2022/01/05 00:15:38;;;;;;;5.82;3.10;;;10.00;99.90;;;10.09;65.44;96861.78;4985721;28;20078;-80
2022/01/05 00:18:04;;;;;;;5.88;2.92;;;10.00;99.90;;;10.04;65.67;96848.38;5000758;28;20121;-80
2022/01/05 00:20:30;;;;;;;4.50;2.70;;;9.90;99.90;;;10.05;65.57;96863.53;4988913;28;20078;-80
2022/01/05 00:22:56;;;;;;;3.65;2.78;;;9.90;99.90;;;9.96;65.42;96877.06;4974693;28;20477;-80
2022/01/05 00:25:22;;;;;;;4.72;2.95;;;9.80;99.90;;;9.93;65.40;96879.63;4989042;28;20046;-80
2022/01/05 00:27:48;;;;;;;5.45;3.47;;;9.80;99.90;;;9.87;65.83;96876.25;4975397;28;20832;-80
2022/01/05 00:30:14;;;;;;;5.10;2.70;;;9.80;99.90;;;9.83;65.87;96869.09;5001966;28;20110;-80
2022/01/05 00:32:40;;;;;;;3.28;2.85;;;9.70;99.90;;;9.80;66.08;96875.94;4989696;28;20073;-80
2022/01/05 00:35:07;;;;;;;4.45;3.30;;;9.70;99.90;;;9.83;65.80;96899.66;4960955;28;20569;-81
2022/01/05 00:37:33;;;;;;;4.45;3.38;;;9.60;99.90;;;9.83;65.99;96896.16;5005889;28;20042;-81
2022/01/05 00:39:59;;;;;;;4.97;4.03;;;9.60;99.90;;;9.78;66.10;96886.28;4958247;28;20081;-80
2022/01/05 00:42:25;;;;;;;4.57;3.60;;;9.60;99.90;;;9.72;65.99;96885.63;4970557;28;20445;-81
2022/01/05 00:44:51;;;;;;;6.07;3.30;;;9.60;99.90;;;9.68;66.42;96881.94;4954963;28;20379;-81
2022/01/05 00:47:17;;;;;;;7.53;3.03;;;9.50;99.90;;;9.60;66.62;96874.59;4966441;28;20453;-81
2022/01/05 00:49:43;;;;;;;6.75;3.55;;;9.50;99.90;;;9.59;66.21;96885.72;4972319;28;20076;-80
2022/01/05 00:52:09;;;;;;;5.35;2.95;;;9.40;99.90;;;9.54;66.64;96887.47;4987958;28;20094;-80
2022/01/05 00:54:35;;;;;;;7.18;3.72;;;9.40;99.90;;;9.53;66.70;96885.06;4973208;28;20121;-80
2022/01/05 00:57:01;;;;;;;6.50;3.47;;;9.40;99.90;;;9.48;65.82;96877.91;4966018;28;20439;-80
2022/01/05 00:59:27;;;;;;;8.13;3.35;;;9.30;99.90;;;9.43;66.45;96882.66;4973090;28;20054;-80
2022/01/05 01:01:53;;;;;;;5.15;3.10;;;9.30;99.90;;;9.32;66.36;96888.34;4958818;28;20541;-80
2022/01/05 01:04:19;;;;;;;6.93;3.72;;;9.20;99.90;;;9.29;66.78;96890.88;4988336;28;20046;-80
2022/01/05 01:06:47;;;;;;;6.65;4.07;;;9.20;99.90;;;9.25;66.41;96896.09;4973831;28;20056;-80
2022/01/05 01:09:13;;;;;;;6.18;3.55;;;9.10;99.90;;;9.21;66.11;96895.16;4987315;28;20148;-80
2022/01/05 01:11:39;;;;;;;8.65;4.22;;;9.10;99.90;;;9.19;66.49;96891.97;4971547;28;20038;-80
2022/01/05 01:14:05;;;;;;;4.93;3.33;;;9.10;99.90;;;9.18;66.29;96898.47;4974398;28;20478;-80
2022/01/05 01:16:31;;;;;;;5.15;3.72;;;9.10;99.90;;;9.25;66.57;96906.13;4999817;28;20065;-80
2022/01/05 01:18:57;;;;;;;5.95;3.85;;;9.00;99.90;;;9.25;66.76;96919.66;4959701;28;20516;-80
2022/01/05 01:21:23;;;;;;;5.65;3.83;;;9.00;99.90;;;9.24;66.84;96912.66;4941760;28;20053;-80
2022/01/05 01:23:55;;;;;;;6.03;3.95;;;9.00;99.90;;;9.21;66.33;96907.84;4988941;28;20034;-80
2022/01/05 01:26:25;;;;;;;7.07;4.15;;;9.00;99.90;;;9.24;66.31;96923.50;4987351;28;20391;-80
2022/01/05 01:28:51;;;;;;;9.05;5.05;;;9.00;99.90;;;9.26;67.20;96919.38;4960217;28;20043;-80
2022/01/05 01:31:17;;;;;;;5.50;4.88;;;9.00;99.90;;;9.27;66.71;96899.31;4974303;28;20076;-80
2022/01/05 01:33:43;;;;;;;9.85;5.40;;;9.00;99.90;;;9.26;66.68;96892.31;4986811;28;20053;-80
2022/01/05 01:36:09;;;;;;;7.13;4.88;;;9.00;99.90;;;9.29;67.01;96893.59;4988561;28;20065;-80
2022/01/05 01:38:38;;;;;;;12.85;6.00;;;9.00;99.90;;;9.29;66.91;96894.38;4987298;28;20042;-80
2022/01/05 01:41:05;;;;;;;8.98;5.07;;;9.00;99.90;;;9.30;66.72;96898.69;4989733;28;20053;-80
2022/01/05 01:43:32;;;;;;;9.48;6.45;;;9.00;99.90;;;9.33;67.20;96906.16;4972086;28;20050;-80
2022/01/05 01:45:58;;;;;;;10.82;7.07;;;9.00;99.90;;;9.39;67.05;96906.03;4971369;28;20076;-80
2022/01/05 01:48:24;;;;;;;10.20;7.50;;;9.10;99.90;;;9.42;67.06;96908.13;4973563;28;20507;-80
2022/01/05 01:50:50;;;;;;;20.60;10.13;;;9.10;99.90;;;9.44;67.12;96911.31;4970234;28;20121;-80
2022/01/05 01:53:16;;;;;;;14.13;9.93;;;9.20;99.90;;;9.43;67.22;96909.72;4971237;28;20046;-80
2022/01/05 01:55:42;;;;;;;15.35;10.20;;;9.20;99.90;;;9.44;67.32;96912.13;4991943;28;20057;-80
2022/01/05 01:58:08;;;;;;;16.70;9.85;;;9.20;99.90;;;9.37;67.87;96913.69;5001772;28;20048;-80
2022/01/05 02:00:35;;;;;;;16.27;11.30;;;9.20;99.90;;;9.32;68.04;96918.09;4958440;28;20082;-80
2022/01/05 02:03:01;;;;;;;15.48;11.55;;;9.20;99.90;;;9.31;67.47;96921.94;4955056;28;20046;-80
2022/01/05 02:05:28;;;;;;;22.02;12.38;;;9.20;99.90;;;9.31;67.75;96926.53;4954791;28;20125;-80
2022/01/05 02:07:54;;;;;;;23.05;12.77;;;9.10;99.90;;;9.35;68.08;96924.81;4965824;28;20050;-80
2022/01/05 02:10:21;;;;;;;18.92;12.35;;;9.10;99.90;;;9.25;68.11;96939.41;4969900;28;20083;-80
2022/01/05 02:12:50;;;;;;;17.17;10.30;;;9.10;99.90;;;9.26;68.31;96938.31;4953331;28;20046;-80
2022/01/05 02:15:16;;;;;;;14.52;10.65;;;9.10;99.90;;;9.31;68.21;96942.75;4969333;28;20504;-80
2022/01/05 02:20:29;;;;;;;14.63;9.95;;;9.10;99.90;;;9.32;68.23;96942.47;4960963;28;20119;-80
2022/01/05 02:22:56;;;;;;;18.98;11.77;;;9.10;99.90;;;9.36;67.72;96950.75;4974463;28;20105;-80
2022/01/05 02:25:23;;;;;;;14.73;9.30;;;9.20;99.90;;;9.30;67.84;96939.25;4988372;28;20492;-80
2022/01/05 02:27:50;;;;;;;11.55;8.50;;;9.10;99.90;;;9.26;67.25;96941.00;4986957;28;20050;-80
2022/01/05 02:30:28;;;;;;;11.15;9.43;;;9.20;99.90;;;9.29;66.90;96958.53;4987074;28;20541;-80
2022/01/05 02:32:55;;;;;;;15.48;9.45;;;9.10;99.90;;;9.27;67.24;96944.50;4985922;28;20144;-80
2022/01/05 02:35:22;;;;;;;11.65;8.35;;;9.10;99.90;;;9.28;67.49;96932.56;4986879;28;20069;-81
2022/01/05 02:37:51;;;;;;;11.98;8.90;;;9.10;99.90;;;9.28;67.44;96944.19;4956488;28;20041;-80
2022/01/05 02:40:19;;;;;;;18.40;9.32;;;9.10;99.90;;;9.29;67.50;96959.31;4968844;28;20058;-80
2022/01/05 02:42:45;;;;;;;12.27;8.80;;;9.10;99.90;;;9.28;67.27;96946.88;4954716;28;20137;-80
2022/01/05 02:45:12;;;;;;;13.05;8.77;;;9.00;99.90;;;9.29;67.17;96953.13;4989453;28;20084;-80
2022/01/05 02:47:38;;;;;;;12.38;9.18;;;9.00;99.90;;;9.24;67.09;96956.75;4970018;28;20050;-80
2022/01/05 02:50:05;;;;;;;12.30;7.93;;;9.00;99.90;;;9.17;66.87;96961.78;4954832;28;20116;-80
2022/01/05 02:52:31;;;;;;;15.35;9.13;;;9.00;99.90;;;9.16;66.59;96953.97;4942218;28;20124;-80
2022/01/05 02:54:57;;;;;;;10.40;7.95;;;9.00;99.90;;;9.10;67.01;96964.94;4973292;28;20121;-80
2022/01/05 02:57:23;;;;;;;10.50;8.68;;;8.90;99.90;;;9.05;66.57;96954.22;4949470;28;20124;-80
2022/01/05 02:59:49;;;;;;;14.05;9.38;;;8.90;99.90;;;8.97;67.23;96943.38;4973342;28;20477;-80
2022/01/05 03:02:15;;;;;;;14.48;9.90;;;8.90;99.90;;;8.93;67.24;96940.50;4983641;28;20118;-80
2022/01/05 03:04:41;;;;;;;11.57;9.18;;;8.80;99.90;;;8.90;66.97;96950.03;4939900;28;20043;-80
2022/01/05 03:07:08;;;;;;;16.45;10.52;;;8.80;99.90;;;8.87;67.44;96952.53;4965801;28;20119;-80
2022/01/05 03:09:35;;;;;;;19.70;12.52;;;8.80;99.90;;;8.87;67.44;96942.50;4983583;28;20849;-80
2022/01/05 03:12:01;;;;;;;18.73;12.55;;;8.70;99.90;;;8.88;67.43;96949.53;4961405;28;20486;-80
2022/01/05 03:14:27;;;;;;;17.77;11.90;;;8.70;99.90;;;8.89;67.61;96944.91;4971986;28;20460;-80
2022/01/05 03:16:53;;;;;;;18.23;13.52;;;8.70;99.90;;;8.84;66.73;96926.91;4997673;28;20089;-80
2022/01/05 03:19:19;;;;;;;21.73;13.95;;;8.70;99.90;;;8.84;67.43;96924.19;4984284;28;20069;-80
2022/01/05 03:21:44;;;;;;;20.95;14.32;;;8.70;99.90;;;8.87;67.00;96912.75;4971456;28;20050;-80
2022/01/05 03:24:11;;;;;;;18.83;14.45;;;8.60;99.90;;;8.85;66.79;96909.59;4986325;28;20034;-80
2022/01/05 03:26:37;;;;;;;25.27;14.63;;;8.60;99.90;;;8.80;66.74;96908.91;4965972;28;20327;-80
2022/01/05 03:29:02;;;;;;;21.83;15.05;;;8.60;99.90;;;8.77;66.48;96902.19;4954801;28;20046;-80
2022/01/05 03:31:29;;;;;;;20.98;13.93;;;8.50;99.90;;;8.72;66.68;96898.84;4987881;28;20064;-80
2022/01/05 03:33:55;;;;;;;17.80;13.93;;;8.50;99.90;;;8.68;66.18;96910.25;4955812;28;20030;-80
2022/01/05 03:36:21;;;;;;;21.63;14.40;;;8.40;99.90;;;8.64;66.74;96908.47;4986703;28;20066;-80
2022/01/05 03:38:47;;;;;;;22.85;13.93;;;8.40;99.90;;;8.57;66.87;96894.59;4952620;28;20054;-80
2022/01/05 03:41:13;;;;;;;24.60;15.60;;;8.30;99.90;;;8.48;67.30;96889.94;5000506;28;20119;-80
2022/01/05 03:43:39;;;;;;;46.65;20.02;;;8.30;99.90;;;8.44;67.49;96878.13;4986120;28;20120;-80
2022/01/05 03:46:05;;;;;;;33.63;20.05;;;8.20;99.90;;;8.37;67.67;96883.16;4959279;28;20041;-80
2022/01/05 03:48:31;;;;;;;41.05;22.35;;;8.20;99.90;;;8.32;67.56;96888.66;4968183;28;20494;-80
2022/01/05 03:50:57;;;;;;;28.42;19.80;;;8.10;99.90;;;8.25;68.38;96899.09;4962484;28;20070;-80
2022/01/05 03:53:23;;;;;;;37.83;21.13;;;8.10;99.90;;;8.24;68.02;96886.66;4959896;28;20048;-80
2022/01/05 03:55:49;;;;;;;35.13;21.40;;;8.10;99.90;;;8.26;67.94;96892.56;4970960;28;20113;-80
2022/01/05 03:58:15;;;;;;;36.72;21.50;;;8.00;99.90;;;8.21;68.66;96892.69;4995177;28;20046;-80
2022/01/05 04:00:49;;;;;;;31.50;20.13;;;8.00;99.90;;;8.22;68.60;96888.91;4994442;28;20533;-80
2022/01/05 04:03:15;;;;;;;31.88;20.88;;;8.00;99.90;;;8.20;68.98;96894.59;4973547;28;20042;-80
2022/01/05 04:05:41;;;;;;;29.10;20.63;;;8.00;99.90;;;8.25;68.84;96909.91;4970844;28;20081;-80
2022/01/05 04:08:07;;;;;;;31.77;21.52;;;8.10;99.90;;;8.25;69.44;96915.28;4986126;28;20053;-80
2022/01/05 04:10:33;;;;;;;34.17;20.33;;;8.10;99.90;;;8.27;69.61;96921.19;4966472;28;20045;-80
2022/01/05 04:12:59;;;;;;;32.85;20.27;;;8.10;99.90;;;8.33;68.88;96928.06;4990366;28;20795;-80
2022/01/05 04:15:25;;;;;;;27.35;18.85;;;8.10;99.90;;;8.37;68.75;96933.66;4990493;28;20050;-80
2022/01/05 04:17:51;;;;;;;29.40;18.77;;;8.20;99.90;;;8.31;69.25;96945.69;4973242;28;20824;-80
2022/01/05 04:20:17;;;;;;;28.48;19.08;;;8.20;99.90;;;8.36;69.08;96942.88;4943262;28;20068;-80
2022/01/05 04:22:44;;;;;;;31.50;19.85;;;8.20;99.90;;;8.41;68.74;96940.09;4990305;28;20116;-80
2022/01/05 04:25:10;;;;;;;31.10;20.17;;;8.20;99.90;;;8.44;68.21;96942.97;4941511;28;20120;-80
2022/01/05 04:27:36;;;;;;;38.58;23.02;;;8.20;99.90;;;8.44;68.46;96942.19;4991882;28;20493;-80
2022/01/05 04:30:04;;;;;;;32.45;20.80;;;8.20;99.90;;;8.46;68.69;96950.78;4959630;28;20485;-80
2022/01/05 04:32:30;;;;;;;31.35;19.02;;;8.20;99.90;;;8.43;68.44;96943.28;4971201;28;20440;-81
2022/01/05 04:34:56;;;;;;;32.78;21.02;;;8.20;99.90;;;8.42;68.52;96941.69;4955611;28;20120;-82
2022/01/05 04:37:22;;;;;;;36.10;21.38;;;8.20;99.90;;;8.39;68.40;96934.97;4951771;28;20082;-81
2022/01/05 04:39:50;;;;;;;39.22;22.85;;;8.20;99.90;;;8.40;68.34;96942.00;4959866;28;20057;-81
2022/01/05 04:42:16;;;;;;;34.28;22.02;;;8.20;99.90;;;8.39;68.08;96947.66;4957956;28;20107;-81
2022/01/05 04:44:42;;;;;;;32.25;19.52;;;8.10;99.90;;;8.34;68.00;96958.59;4987046;28;20042;-81
2022/01/05 04:47:08;;;;;;;35.58;21.88;;;8.10;99.90;;;8.33;68.28;96952.38;4976621;28;20050;-81
2022/01/05 04:49:34;;;;;;;39.38;23.50;;;8.10;99.90;;;8.33;68.55;96952.38;4973928;28;20037;-81
2022/01/05 04:52:00;;;;;;;52.05;27.55;;;8.10;99.90;;;8.36;68.16;96948.28;4972291;28;20114;-81
2022/01/05 04:54:26;;;;;;;39.90;23.85;;;8.10;99.90;;;8.30;68.88;96963.81;4976219;28;20042;-81
2022/01/05 04:56:52;;;;;;;40.30;23.27;;;8.10;99.90;;;8.29;68.24;96974.91;4958888;28;20093;-81
2022/01/05 04:59:18;;;;;;;40.80;25.60;;;8.10;99.90;;;8.27;69.07;96976.00;4970300;28;20433;-81
2022/01/05 05:01:44;;;;;;;35.70;23.20;;;8.10;99.90;;;8.27;68.65;96986.03;4955296;28;20077;-80
2022/01/05 05:04:10;;;;;;;39.47;23.10;;;8.10;99.90;;;8.32;68.50;96985.91;4990729;28;20517;-81
2022/01/05 05:06:36;;;;;;;37.92;22.30;;;8.10;99.90;;;8.33;68.33;96992.13;4966276;28;20561;-81
2022/01/05 05:09:01;;;;;;;41.55;23.40;;;8.10;99.90;;;8.30;68.54;96987.31;4957634;28;20096;-81
2022/01/05 05:11:27;;;;;;;36.20;23.45;;;8.10;99.90;;;8.30;68.58;96985.41;4970616;28;20046;-81
2022/01/05 05:13:53;;;;;;;39.35;23.67;;;8.10;99.90;;;8.32;68.42;96985.91;4973295;28;20532;-81
2022/01/05 05:16:19;;;;;;;31.13;21.10;;;8.10;99.90;;;8.37;68.48;96977.69;4971477;28;20034;-81
2022/01/05 05:18:45;;;;;;;43.22;26.98;;;8.20;99.90;;;8.37;68.43;96976.88;4977064;28;20060;-81
2022/01/05 05:21:11;;;;;;;42.88;24.60;;;8.20;99.90;;;8.25;68.78;96980.91;4987275;28;20537;-81
2022/01/05 05:23:37;;;;;;;36.35;23.33;;;8.10;99.90;;;8.26;68.93;96984.41;4968940;28;20124;-81
2022/01/05 05:26:03;;;;;;;37.45;22.42;;;8.10;99.90;;;8.22;68.87;96978.03;4986223;28;20088;-81
2022/01/05 05:28:29;;;;;;;38.28;25.20;;;8.10;99.90;;;8.24;69.43;96981.22;4966300;28;20496;-81
2022/01/05 05:30:55;;;;;;;38.92;23.65;;;8.10;99.90;;;8.23;68.75;96972.31;4971094;28;20042;-81
2022/01/05 05:33:21;;;;;;;37.38;22.10;;;8.10;99.90;;;8.21;69.04;96973.72;4979080;28;20069;-81
2022/01/05 05:35:47;;;;;;;38.35;21.58;;;8.00;99.90;;;8.27;68.83;96978.72;4975158;28;20041;-81
2022/01/05 05:38:15;;;;;;;38.45;24.65;;;8.10;99.90;;;8.30;69.06;96960.31;5005755;28;20066;-81
2022/01/05 05:40:43;;;;;;;39.10;23.00;;;8.10;99.90;;;8.14;68.92;96957.94;4985018;28;20042;-81
2022/01/05 05:43:10;;;;;;;37.97;24.33;;;8.10;99.90;;;8.18;68.86;96955.41;4986479;28;20475;-81
2022/01/05 05:45:36;;;;;;;33.72;21.05;;;8.00;99.90;;;8.17;68.96;96961.94;4969638;28;20075;-81
2022/01/05 05:48:02;;;;;;;41.47;24.52;;;8.00;99.90;;;8.17;69.36;96961.94;4987884;28;20034;-81
2022/01/05 05:50:29;;;;;;;69.20;32.97;;;8.00;99.90;;;8.13;69.20;96959.03;4951547;28;20121;-81
2022/01/05 05:52:55;;;;;;;123.60;57.95;;;8.00;99.90;;;8.13;69.29;96960.94;4969586;28;20125;-81
2022/01/05 05:55:21;;;;;;;128.27;60.08;;;8.00;99.90;;;8.11;69.00;96969.31;4981486;28;20152;-81
2022/01/05 05:57:47;;;;;;;142.25;65.05;;;8.00;99.90;;;8.12;69.36;96964.75;4956253;28;20046;-81
2022/01/05 06:00:14;;;;;;;127.80;65.25;;;8.00;99.90;;;8.18;69.10;96948.13;4973443;28;20072;-82
2022/01/05 06:02:40;;;;;;;113.38;58.67;;;8.00;99.90;;;8.20;69.48;96945.91;4973208;28;20053;-82
2022/01/05 06:05:06;;;;;;;74.65;38.72;;;8.00;99.90;;;8.18;69.35;96955.41;4941720;28;20092;-82
2022/01/05 06:07:32;;;;;;;116.13;58.38;;;8.10;99.90;;;8.22;69.30;96973.44;4974055;28;20081;-82
2022/01/05 06:09:59;;;;;;;131.57;66.95;;;8.10;99.90;;;8.21;69.51;96969.09;4970104;28;20147;-82
2022/01/05 06:12:25;;;;;;;126.78;63.13;;;8.10;99.90;;;8.24;68.77;96967.69;4956063;28;20042;-82
2022/01/05 06:14:51;;;;;;;94.18;47.83;;;8.10;99.90;;;8.27;68.58;96977.91;4966906;28;20363;-82
2022/01/05 06:17:17;;;;;;;88.47;43.58;;;8.10;99.90;;;8.25;69.45;96964.72;4971071;28;20096;-82
2022/01/05 06:19:43;;;;;;;97.38;50.22;;;8.10;99.90;;;8.18;69.17;96956.22;4982307;28;20112;-81
2022/01/05 06:22:10;;;;;;;94.13;45.55;;;8.10;99.90;;;8.12;69.30;96946.63;4942108;28;20485;-81
2022/01/05 06:24:39;;;;;;;80.38;45.55;;;8.10;99.90;;;8.13;69.07;96956.31;4936797;28;20279;-81
2022/01/05 06:27:05;;;;;;;65.20;37.42;;;8.10;99.90;;;8.11;69.17;96965.81;4974320;28;20442;-81
2022/01/05 06:29:31;;;;;;;53.35;30.73;;;8.10;99.90;;;8.06;69.53;96972.13;4985944;28;20041;-81
2022/01/05 06:31:57;;;;;;;45.38;27.52;;;8.00;99.90;;;8.03;69.62;96978.13;4973513;28;20466;-81
2022/01/05 06:34:23;;;;;;;46.95;27.20;;;8.00;99.90;;;8.01;69.65;96977.63;4987884;28;20466;-81
2022/01/05 06:36:49;;;;;;;42.22;24.17;;;8.00;99.90;;;8.03;69.64;96967.34;4972053;28;20068;-81
2022/01/05 06:39:16;;;;;;;47.78;28.70;;;8.00;99.90;;;8.03;70.06;96960.03;4985707;28;20529;-80
2022/01/05 06:41:42;;;;;;;43.10;27.17;;;7.90;99.90;;;8.08;69.34;96977.25;4971700;28;20062;-81
2022/01/05 06:44:08;;;;;;;48.35;27.38;;;8.00;99.90;;;8.16;69.09;96981.94;4989079;28;20042;-80
2022/01/05 06:46:34;;;;;;;53.75;29.92;;;8.00;99.90;;;8.16;69.00;96988.13;4990945;28;20486;-80
2022/01/05 06:49:00;;;;;;;54.35;29.83;;;8.00;99.90;;;8.10;69.10;96993.94;4970178;28;20077;-80
2022/01/05 06:51:26;;;;;;;74.78;37.05;;;8.00;99.90;;;8.00;69.42;96995.75;4956099;28;20084;-80
2022/01/05 06:53:52;;;;;;;99.82;46.88;;;8.00;99.90;;;7.92;69.82;96999.16;4972984;28;20521;-80
2022/01/05 06:56:18;;;;;;;100.63;44.15;;;7.90;99.90;;;7.97;69.66;97014.47;4990722;28;20045;-80
2022/01/05 06:58:44;;;;;;;88.80;39.80;;;7.90;99.90;;;8.01;70.13;97015.44;4992330;28;20131;-82
2022/01/05 07:01:10;;;;;;;75.13;39.22;;;7.90;99.90;;;8.02;70.20;96993.53;4987513;28;20062;-83
2022/01/05 07:03:36;;;;;;;64.38;36.28;;;7.90;99.90;;;7.97;70.35;96996.34;5001645;28;20046;-83
2022/01/05 07:06:05;;;;;;;66.35;35.22;;;7.90;99.90;;;8.01;69.98;96994.66;4967256;28;20069;-83
2022/01/05 07:08:31;;;;;;;68.88;37.53;;;7.90;99.90;;;8.07;69.79;97010.75;4959181;28;20045;-83
2022/01/05 07:10:57;;;;;;;75.30;37.70;;;8.00;99.90;;;8.12;70.01;97002.56;4957947;28;20576;-82
2022/01/05 07:13:23;;;;;;;69.82;38.35;;;8.00;99.90;;;8.16;70.26;97000.84;4972901;28;20081;-81
2022/01/05 07:15:50;;;;;;;73.97;37.33;;;8.00;99.90;;;8.16;69.83;96998.94;4956110;28;20604;-80
2022/01/05 07:18:16;;;;;;;79.10;39.25;;;8.10;99.90;;;8.20;69.30;97007.25;4971093;28;20057;-82
2022/01/05 07:20:42;;;;;;;72.60;39.00;;;8.10;99.90;;;8.29;69.34;96993.81;4940586;28;20120;-83
2022/01/05 07:23:09;;;;;;;66.38;37.75;;;8.10;99.90;;;8.22;69.41;96996.94;4958974;28;20038;-82
2022/01/05 07:25:35;;;;;;;68.78;35.40;;;8.20;99.90;;;8.25;69.43;96997.13;4971819;28;20128;-79
2022/01/05 07:28:01;;;;;;;75.43;37.67;;;8.20;99.90;;;8.24;70.06;97000.13;4959875;28;20077;-81
2022/01/05 07:30:27;;;;;;;72.22;35.75;;;8.20;99.90;;;8.18;69.92;96990.53;4988532;28;20050;-81
2022/01/05 07:32:53;;;;;;;65.82;37.55;;;8.20;99.90;;;8.25;69.96;96993.63;4969507;28;20406;-81
2022/01/05 07:35:19;;;;;;;73.82;39.05;;;8.20;99.90;;;8.43;69.14;96987.31;4960774;28;20122;-81
2022/01/05 07:37:45;;;;;;;71.82;39.15;;;8.30;99.90;;;8.41;68.88;96989.50;4952998;28;20046;-81
2022/01/05 07:40:12;;;;;;;64.43;36.03;;;8.30;99.90;;;8.47;69.38;96987.50;4985332;28;20061;-81
2022/01/05 07:42:38;;;;;;;75.32;36.22;;;8.40;99.90;;;8.45;68.94;97001.31;4966086;28;20117;-81
2022/01/05 07:45:06;;;;;;;70.75;36.33;;;8.40;99.90;;;8.45;69.12;96995.91;4958359;28;20045;-81
2022/01/05 07:47:32;;;;;;;66.15;37.45;;;8.40;99.90;;;8.52;69.24;97000.09;4974601;28;20128;-81
2022/01/05 07:49:58;;;;;;;71.25;40.80;;;8.30;99.90;;;8.51;68.68;96998.50;4958052;28;20129;-81
2022/01/05 07:52:24;;;;;;;77.78;39.58;;;8.40;99.90;;;8.52;69.09;96994.69;4958326;28;20062;-81
2022/01/05 07:54:53;;;;;;;70.85;36.22;;;8.40;99.90;;;8.41;69.03;96977.91;4957474;28;20500;-81
2022/01/05 07:57:19;;;;;;;70.05;39.85;;;8.40;99.90;;;8.36;69.23;96986.09;4957091;28;20531;-81
2022/01/05 07:59:46;;;;;;;67.45;36.60;;;8.40;99.90;;;8.40;69.21;96981.72;4960477;28;20049;-81
2022/01/05 08:02:12;;;;;;;70.88;40.15;;;8.40;99.90;;;8.31;68.97;96978.09;4960993;28;20107;-81
2022/01/05 08:04:38;;;;;;;65.93;37.13;;;8.30;99.90;;;8.32;69.39;96980.50;4987524;28;20145;-81
2022/01/05 08:07:04;;;;;;;62.78;34.15;;;8.30;99.90;;;8.41;69.18;96977.91;4975561;28;20042;-83
2022/01/05 08:09:31;;;;;;;56.40;31.48;;;8.30;99.90;;;8.45;68.49;96968.09;4970690;28;20038;-81
2022/01/05 08:11:57;;;;;;;52.80;30.30;;;8.40;99.90;;;8.35;69.40;96958.28;4976828;28;20069;-81
2022/01/05 08:14:23;;;;;;;55.42;31.92;;;8.40;99.90;;;8.41;69.25;96969.81;4978600;28;20084;-81
2022/01/05 08:16:50;;;;;;;100.35;58.15;;;8.40;99.90;;;8.53;68.83;96985.50;4988441;28;20046;-81
2022/01/05 08:19:16;;;;;;;61.28;34.03;;;8.40;99.90;;;8.63;69.07;96988.78;4974107;28;20469;-81
2022/01/05 08:21:41;;;;;;;59.83;35.70;;;8.50;99.90;;;8.72;68.90;96991.53;4979354;28;20066;-81
2022/01/05 08:24:08;;;;;;;62.67;33.33;;;8.60;99.90;;;8.74;68.99;96997.44;4954366;28;20122;-81
2022/01/05 08:26:37;;;;;;;60.83;35.20;;;8.70;99.90;;;8.79;68.68;96991.91;4970840;28;20046;-81
2022/01/05 08:29:03;;;;;;;70.43;37.38;;;8.70;99.90;;;8.79;68.61;96994.63;4988586;28;20121;-81
2022/01/05 08:31:29;;;;;;;100.30;48.65;;;8.70;99.90;;;8.75;68.54;96988.25;4988229;28;20094;-81
2022/01/05 08:33:56;;;;;;;78.82;45.45;;;8.70;99.90;;;8.70;68.30;96988.31;4973171;28;20176;-81
2022/01/05 08:36:23;;;;;;;83.47;47.63;;;8.70;99.90;;;8.73;68.76;96982.34;4973226;28;20080;-81
2022/01/05 08:38:49;;;;;;;86.43;47.90;;;8.70;99.90;;;8.72;68.59;96983.41;4976891;28;20046;-81
2022/01/05 08:41:16;;;;;;;83.25;44.58;;;8.70;99.90;;;8.66;68.57;96990.06;4995568;28;20045;-81
2022/01/05 08:43:42;;;;;;;75.38;44.00;;;8.60;99.90;;;8.69;68.91;96995.63;4958487;28;20095;-80
2022/01/05 08:46:08;;;;;;;85.60;44.40;;;8.70;99.90;;;8.74;67.95;96994.72;4971775;28;20077;-80
2022/01/05 08:48:34;;;;;;;75.82;41.58;;;8.70;99.90;;;8.73;68.83;96992.31;4982719;28;20056;-81
2022/01/05 08:50:59;;;;;;;71.10;39.88;;;8.70;99.90;;;8.68;69.13;96993.25;4985180;28;20090;-81
2022/01/05 08:53:26;;;;;;;73.28;41.25;;;8.70;99.90;;;8.73;68.57;97000.44;4952648;28;20478;-81
2022/01/05 08:55:52;;;;;;;61.63;32.10;;;8.60;99.90;;;8.75;68.78;96996.34;4993364;28;20105;-81
2022/01/05 08:58:19;;;;;;;56.05;33.25;;;8.70;99.90;;;8.79;68.15;96999.22;4989676;28;20045;-81
2022/01/05 09:00:45;;;;;;;70.15;36.72;;;8.70;99.90;;;8.80;68.29;97007.03;4973323;28;20073;-81
2022/01/05 09:03:17;;;;;;;57.42;33.05;;;8.70;99.90;;;8.82;68.27;97010.22;4954111;28;20046;-81
2022/01/05 09:05:43;;;;;;;57.35;31.85;;;8.70;99.90;;;8.77;68.44;97013.03;4941006;28;20045;-81
2022/01/05 09:08:09;;;;;;;55.45;29.25;;;8.70;99.90;;;8.77;68.09;97023.84;4956777;28;20642;-81
2022/01/05 09:10:36;;;;;;;39.38;22.00;;;8.70;99.90;;;8.77;67.78;97031.97;4941883;28;20038;-81
2022/01/05 09:13:02;;;;;;;37.63;20.15;;;8.70;99.90;;;8.74;68.21;97032.56;4990647;28;20045;-81
2022/01/05 09:15:33;;;;;;;32.13;19.50;;;8.70;99.90;;;8.78;67.87;97039.00;4988250;28;20057;-81
2022/01/05 09:18:00;;;;;;;29.48;16.42;;;8.60;99.90;;;8.73;67.67;97046.38;4974349;28;20223;-81
2022/01/05 09:20:26;;;;;;;23.85;12.25;;;8.70;99.90;;;8.72;67.52;97050.22;4973440;28;20068;-81
2022/01/05 09:22:52;;;;;;;28.10;13.25;;;8.70;99.90;;;8.70;67.46;97047.78;4965009;28;20129;-81
2022/01/05 09:25:18;;;;;;;24.23;13.45;;;8.70;99.90;;;8.65;67.44;97050.59;4984696;28;20113;-81
2022/01/05 09:27:45;;;;;;;25.52;11.90;;;8.70;99.90;;;8.67;67.78;97043.00;4963110;28;20061;-81
2022/01/05 09:30:12;;;;;;;18.27;10.82;;;8.60;99.90;;;8.69;67.28;97044.28;4944470;28;20113;-81
2022/01/05 09:32:38;;;;;;;25.33;11.70;;;8.60;99.90;;;8.71;67.43;97029.69;4938890;28;20129;-81
2022/01/05 09:35:07;;;;;;;18.25;10.05;;;8.60;99.90;;;8.69;67.64;97040.81;4976599;28;20041;-81
2022/01/05 09:37:38;;;;;;;14.68;9.63;;;8.60;99.90;;;8.66;67.06;97054.94;4974591;28;20115;-81
2022/01/05 09:42:50;;;;;;;16.23;9.75;;;8.60;99.90;;;8.63;67.43;97063.66;4976858;28;20896;-81
2022/01/05 09:45:20;;;;;;;23.23;11.27;;;8.60;99.90;;;8.59;67.66;97058.03;4957929;28;20048;-81
2022/01/05 09:48:15;;;;;;;13.07;8.57;;;8.60;99.90;;;8.52;67.51;97056.84;5005142;28;20160;-82
2022/01/05 09:51:06;;;;;;;14.85;8.65;;;8.60;99.90;;;8.50;67.75;97056.34;5003429;28;20066;-81
2022/01/05 09:53:33;;;;;;;12.07;8.65;;;8.50;99.90;;;8.51;66.95;97055.25;4977475;28;20042;-81
2022/01/05 09:55:59;;;;;;;14.35;9.73;;;8.50;99.90;;;8.62;67.27;97059.34;4973163;28;20046;-82
2022/01/05 09:58:25;;;;;;;14.57;7.35;;;8.60;99.90;;;8.57;66.70;97049.44;4973544;28;20042;-82
2022/01/05 10:00:51;;;;;;;12.48;6.90;;;8.60;99.90;;;8.63;66.73;97050.13;4984952;28;20456;-81
2022/01/05 10:03:18;;;;;;;9.57;5.60;;;8.60;99.90;;;8.63;65.99;97052.84;4987032;28;20034;-82
2022/01/05 10:05:44;;;;;;;8.43;5.45;;;8.60;99.90;;;8.62;66.17;97053.94;4983798;28;20549;-82
2022/01/05 10:08:10;;;;;;;10.07;5.85;;;8.70;99.90;;;8.71;66.10;97052.13;4993057;28;20041;-81
2022/01/05 10:10:37;;;;;;;11.98;6.57;;;8.70;99.90;;;8.77;66.33;97050.88;4989175;28;20049;-81
2022/01/05 10:13:03;;;;;;;15.95;6.45;;;8.80;99.90;;;8.85;66.33;97052.06;4987723;28;20049;-81
2022/01/05 10:15:29;;;;;;;13.23;7.40;;;8.80;99.90;;;8.92;65.67;97049.75;4990734;28;20121;-81
2022/01/05 10:18:16;;;;;;;15.75;8.10;;;8.90;99.90;;;8.90;65.28;97044.66;4974560;28;20098;-81
2022/01/05 10:21:02;;;;;;;14.73;7.57;;;9.00;99.90;;;8.96;65.01;97028.31;4973502;28;20438;-81
2022/01/05 10:23:37;;;;;;;15.88;7.97;;;9.00;99.90;;;9.06;65.03;97028.88;4956607;28;20058;-81
2022/01/05 10:26:32;;;;;;;12.35;7.80;;;9.00;99.90;;;9.21;64.76;97027.72;4980364;28;20034;-81